Time;durP1;ratioP1;P1;durP2;ratioP2;P2;SDS_P1;SDS_P2;PMS_P1;PMS_P2;Temp;Humidity;BMP_temperature;BMP_pressure;BME280_temperature;BME280_humidity;BME280_pressure;Samples;Min_cycle;Max_cycle;Signal;HPM_P1;HPM_P2
2023/08/30 00:01:43;;;;;;;1.10;1.00;;;24.60;83.30;;;;;;6128113;23;20479;-90
2023/08/30 00:04:10;;;;;;;2.00;1.40;;;24.60;83.20;;;;;;6128170;23;20428;-89
2023/08/30 00:06:37;;;;;;;1.30;1.20;;;24.60;83.20;;;;;;6128255;23;20407;-89
2023/08/30 00:09:04;;;;;;;1.20;1.07;;;24.60;83.30;;;;;;6127932;23;20428;-89
2023/08/30 00:11:32;;;;;;;1.17;1.07;;;24.60;83.30;;;;;;6127962;23;20480;-89
2023/08/30 00:14:05;;;;;;;1.20;1.10;;;24.50;83.20;;;;;;6127757;23;20404;-89
2023/08/30 00:16:32;;;;;;;1.10;0.90;;;24.50;83.20;;;;;;6128129;23;20393;-90
2023/08/30 00:19:00;;;;;;;1.30;1.13;;;24.50;83.30;;;;;;6127816;23;20460;-89
2023/08/30 00:21:28;;;;;;;1.40;1.30;;;24.60;83.40;;;;;;6127383;23;20440;-90
2023/08/30 00:23:54;;;;;;;1.53;1.43;;;24.50;83.30;;;;;;6127918;23;20439;-90
2023/08/30 00:26:21;;;;;;;1.23;1.07;;;24.50;83.30;;;;;;6127631;23;20496;-90
2023/08/30 00:28:48;;;;;;;1.27;1.17;;;24.50;83.20;;;;;;6127751;23;20405;-90
2023/08/30 00:31:15;;;;;;;1.83;1.20;;;24.50;83.30;;;;;;6127946;23;20432;-89
2023/08/30 00:33:42;;;;;;;1.20;1.10;;;24.50;83.30;;;;;;6127974;23;20427;-89
2023/08/30 00:36:10;;;;;;;1.10;1.00;;;24.50;83.30;;;;;;6127399;23;20908;-89
2023/08/30 00:38:37;;;;;;;1.83;1.27;;;24.50;83.30;;;;;;6127461;23;20511;-90
2023/08/30 00:41:03;;;;;;;1.30;1.17;;;24.50;83.30;;;;;;6127446;23;20487;-89
2023/08/30 00:43:30;;;;;;;1.20;1.03;;;24.50;83.30;;;;;;6127642;23;20440;-89
2023/08/30 00:45:57;;;;;;;1.30;1.00;;;24.50;83.30;;;;;;6127775;23;20805;-90
2023/08/30 00:48:24;;;;;;;2.13;1.10;;;24.50;83.30;;;;;;6127546;23;20495;-89
2023/08/30 00:50:51;;;;;;;1.40;1.00;;;24.50;83.30;;;;;;6127801;23;20436;-89
2023/08/30 00:53:20;;;;;;;1.20;1.10;;;24.50;83.30;;;;;;6127220;23;20483;-89
2023/08/30 00:55:47;;;;;;;1.50;1.20;;;24.50;83.30;;;;;;6127503;23;20393;-89
2023/08/30 00:58:14;;;;;;;1.87;1.30;;;24.60;83.30;;;;;;6127596;23;20868;-90
2023/08/30 01:00:41;;;;;;;1.20;1.07;;;24.50;83.20;;;;;;6127497;23;20411;-89
2023/08/30 01:03:08;;;;;;;1.10;0.90;;;24.50;83.30;;;;;;6127621;23;20497;-90
2023/08/30 01:05:35;;;;;;;1.30;0.90;;;24.50;83.30;;;;;;6127462;23;20420;-90
2023/08/30 01:08:02;;;;;;;1.10;1.00;;;24.50;83.40;;;;;;6127617;23;20732;-90
2023/08/30 01:10:42;;;;;;;1.40;1.20;;;24.50;83.10;;;;;;6127075;23;20966;-90
2023/08/30 01:13:12;;;;;;;1.10;1.00;;;24.50;83.20;;;;;;6115428;23;20397;-89
2023/08/30 01:15:40;;;;;;;1.10;1.00;;;24.50;83.20;;;;;;6127519;23;20796;-89
2023/08/30 01:18:10;;;;;;;1.57;1.10;;;24.50;83.30;;;;;;6127073;23;21058;-90
2023/08/30 01:20:40;;;;;;;1.20;1.00;;;24.50;83.20;;;;;;6127152;23;20492;-89
2023/08/30 01:23:10;;;;;;;2.43;1.00;;;24.50;83.30;;;;;;6127516;23;20411;-90
2023/08/30 01:25:48;;;;;;;1.20;1.10;;;24.50;83.20;;;;;;6127725;23;20726;-89
2023/08/30 01:28:19;;;;;;;1.30;1.20;;;24.50;83.30;;;;;;6127386;23;20389;-89
2023/08/30 01:30:48;;;;;;;1.30;1.20;;;24.50;83.20;;;;;;6127397;23;20480;-89
2023/08/30 01:33:16;;;;;;;1.90;1.23;;;24.50;83.30;;;;;;6126808;23;20401;-89
2023/08/30 01:35:43;;;;;;;1.30;1.10;;;24.50;83.40;;;;;;6127118;23;20407;-90
2023/08/30 01:38:11;;;;;;;1.30;1.20;;;24.50;83.20;;;;;;6127033;23;20472;-89
2023/08/30 01:40:40;;;;;;;1.27;1.10;;;24.50;83.20;;;;;;6127074;23;20401;-89
2023/08/30 01:43:10;;;;;;;1.40;1.10;;;24.50;83.20;;;;;;6126923;23;20428;-89
2023/08/30 01:45:42;;;;;;;1.70;1.40;;;24.50;83.20;;;;;;6127256;23;20419;-89
2023/08/30 01:48:12;;;;;;;1.30;1.20;;;24.50;83.10;;;;;;6115054;23;20416;-89
2023/08/30 01:50:40;;;;;;;1.30;1.20;;;24.50;83.20;;;;;;6127464;23;20401;-91
2023/08/30 01:53:08;;;;;;;1.20;1.00;;;24.50;84.00;;;;;;6126845;23;20443;-89
2023/08/30 01:55:36;;;;;;;1.57;1.10;;;24.50;83.20;;;;;;6127163;23;20904;-89
2023/08/30 01:58:04;;;;;;;1.10;1.00;;;24.50;83.10;;;;;;6126845;23;20951;-89
2023/08/30 02:00:31;;;;;;;1.37;1.20;;;24.50;83.30;;;;;;6127179;23;20491;-89
2023/08/30 02:02:59;;;;;;;1.33;1.20;;;24.50;83.20;;;;;;6126985;23;20409;-89
2023/08/30 02:05:26;;;;;;;1.23;1.13;;;24.50;83.20;;;;;;6126617;23;20445;-90
2023/08/30 02:08:06;;;;;;;1.40;1.10;;;24.50;83.20;;;;;;6126958;23;20424;-89
2023/08/30 02:10:36;;;;;;;1.13;1.03;;;24.50;83.20;;;;;;6126751;23;20475;-89
2023/08/30 02:13:05;;;;;;;1.50;1.40;;;24.50;83.30;;;;;;6126539;23;20975;-89
2023/08/30 02:15:34;;;;;;;1.30;1.07;;;24.50;83.10;;;;;;6126918;23;20429;-89
2023/08/30 02:18:04;;;;;;;2.40;1.10;;;24.50;83.30;;;;;;6126717;23;20527;-90
2023/08/30 02:20:31;;;;;;;1.37;1.27;;;24.50;83.10;;;;;;6126899;23;20451;-90
2023/08/30 02:22:59;;;;;;;1.17;1.03;;;24.40;83.10;;;;;;6126671;23;20471;-89
2023/08/30 02:25:26;;;;;;;1.30;1.20;;;24.40;83.20;;;;;;6126706;23;20419;-89
2023/08/30 02:27:53;;;;;;;1.20;1.10;;;24.50;83.10;;;;;;6126926;23;20407;-89
2023/08/30 02:30:20;;;;;;;1.50;1.37;;;24.40;83.00;;;;;;6127006;23;20480;-89
2023/08/30 02:32:47;;;;;;;1.30;1.20;;;24.40;83.10;;;;;;6126572;23;20484;-90
2023/08/30 02:35:15;;;;;;;1.30;1.13;;;24.40;83.20;;;;;;6126707;23;20492;-89
2023/08/30 02:37:43;;;;;;;1.83;1.40;;;24.40;83.10;;;;;;6126854;23;20401;-90
2023/08/30 02:40:11;;;;;;;1.50;1.23;;;24.40;82.90;;;;;;6127001;23;20413;-90
2023/08/30 02:42:38;;;;;;;1.50;1.40;;;24.40;83.10;;;;;;6126620;23;20782;-90
2023/08/30 02:45:05;;;;;;;1.43;1.30;;;24.40;83.10;;;;;;6125769;23;20884;-91
2023/08/30 02:47:32;;;;;;;1.33;1.10;;;24.40;83.00;;;;;;6126433;23;20952;-89
2023/08/30 02:49:59;;;;;;;1.63;1.53;;;24.40;83.10;;;;;;6126458;23;20507;-89
2023/08/30 02:52:27;;;;;;;1.37;1.27;;;24.40;82.90;;;;;;6126965;23;20432;-89
2023/08/30 02:54:53;;;;;;;2.23;1.23;;;24.40;83.00;;;;;;6126101;23;20432;-89
2023/08/30 02:57:20;;;;;;;1.40;1.30;;;24.40;83.10;;;;;;6126863;23;20401;-89
2023/08/30 02:59:47;;;;;;;1.77;1.67;;;24.40;83.10;;;;;;6126430;23;20531;-90
2023/08/30 03:02:14;;;;;;;1.27;1.17;;;24.40;83.10;;;;;;6126697;23;20503;-89
2023/08/30 03:04:42;;;;;;;1.30;1.20;;;24.40;83.10;;;;;;6127011;23;20888;-89
2023/08/30 03:07:09;;;;;;;1.70;1.33;;;24.40;83.10;;;;;;6126440;23;20421;-89
2023/08/30 03:09:38;;;;;;;1.43;1.30;;;24.40;83.00;;;;;;6126399;23;20959;-89
2023/08/30 03:12:07;;;;;;;1.37;1.27;;;24.40;83.00;;;;;;6126579;23;20472;-91
2023/08/30 03:14:34;;;;;;;1.40;1.27;;;24.40;82.90;;;;;;6126181;23;20910;-89
2023/08/30 03:17:00;;;;;;;1.50;1.40;;;24.40;82.80;;;;;;6126296;23;20433;-89
2023/08/30 03:19:27;;;;;;;1.20;1.00;;;24.40;82.80;;;;;;6126479;23;20540;-90
2023/08/30 03:21:54;;;;;;;2.27;1.33;;;24.40;82.90;;;;;;6126125;23;20903;-89
2023/08/30 03:24:21;;;;;;;1.73;1.63;;;24.40;83.10;;;;;;6126756;23;20492;-89
2023/08/30 03:26:49;;;;;;;1.70;1.10;;;24.40;83.70;;;;;;6126206;23;20484;-89
2023/08/30 03:29:16;;;;;;;1.80;1.70;;;24.40;83.00;;;;;;6125866;23;20884;-89
2023/08/30 03:31:44;;;;;;;1.20;1.00;;;24.40;83.00;;;;;;6126602;23;20479;-90
2023/08/30 03:34:11;;;;;;;2.00;1.73;;;24.40;83.10;;;;;;6126306;23;20484;-89
2023/08/30 03:36:39;;;;;;;1.30;1.20;;;24.40;82.80;;;;;;6126632;23;20428;-89
2023/08/30 03:39:06;;;;;;;1.37;1.27;;;24.40;83.00;;;;;;6126620;23;20450;-89
2023/08/30 03:41:33;;;;;;;2.90;2.00;;;24.40;82.90;;;;;;6126442;23;20408;-89
2023/08/30 03:44:01;;;;;;;1.70;1.20;;;24.40;83.10;;;;;;6125893;23;20409;-90
2023/08/30 03:46:28;;;;;;;1.47;1.37;;;24.40;83.10;;;;;;6126430;23;20416;-89
2023/08/30 03:48:56;;;;;;;1.30;1.20;;;24.40;82.90;;;;;;6126327;23;20452;-90
2023/08/30 03:51:23;;;;;;;1.70;1.30;;;24.40;82.80;;;;;;6126243;23;20409;-90
2023/08/30 03:53:50;;;;;;;1.90;1.80;;;24.40;82.80;;;;;;6126194;23;20471;-89
2023/08/30 03:56:16;;;;;;;1.30;1.20;;;24.40;82.90;;;;;;6127419;23;20476;-90
2023/08/30 03:58:43;;;;;;;1.43;1.33;;;24.40;82.90;;;;;;6128112;23;20852;-89
2023/08/30 04:01:11;;;;;;;1.50;1.40;;;24.40;82.90;;;;;;6128081;23;20484;-89
2023/08/30 04:03:38;;;;;;;1.60;1.50;;;24.40;83.00;;;;;;6127797;23;20491;-89
2023/08/30 04:06:05;;;;;;;1.77;1.67;;;24.30;82.80;;;;;;6127895;23;20512;-91
2023/08/30 04:08:32;;;;;;;3.00;1.40;;;24.30;82.80;;;;;;6128133;23;20443;-89
2023/08/30 04:10:59;;;;;;;1.70;1.60;;;24.30;82.90;;;;;;6128197;23;20487;-91
2023/08/30 04:13:26;;;;;;;1.60;1.50;;;24.30;82.80;;;;;;6128015;23;20487;-90
2023/08/30 04:15:53;;;;;;;2.07;1.87;;;24.30;82.90;;;;;;6127781;23;20412;-90
2023/08/30 04:18:21;;;;;;;1.50;1.40;;;24.30;82.80;;;;;;6128141;23;20539;-89
2023/08/30 04:20:48;;;;;;;1.47;1.33;;;24.30;82.80;;;;;;6127822;23;20443;-91
2023/08/30 04:23:15;;;;;;;2.23;1.57;;;24.30;82.80;;;;;;6127977;23;20412;-90
2023/08/30 04:25:42;;;;;;;1.33;1.23;;;24.30;82.70;;;;;;6127434;23;20483;-89
2023/08/30 04:28:09;;;;;;;3.10;1.60;;;24.30;82.80;;;;;;6127857;23;20726;-89
2023/08/30 04:30:38;;;;;;;1.80;1.70;;;24.30;82.90;;;;;;6127430;23;20435;-89
2023/08/30 04:33:05;;;;;;;1.90;1.70;;;24.30;82.70;;;;;;6127956;23;20424;-91
2023/08/30 04:35:34;;;;;;;1.63;1.53;;;24.30;82.80;;;;;;6127885;23;20488;-89
2023/08/30 04:38:01;;;;;;;1.50;1.40;;;24.30;82.90;;;;;;6127891;23;20408;-89
2023/08/30 04:40:28;;;;;;;1.60;1.20;;;24.30;82.90;;;;;;6127644;23;20460;-90
2023/08/30 04:42:55;;;;;;;1.10;1.00;;;24.30;83.00;;;;;;6127359;23;20781;-90
2023/08/30 04:45:22;;;;;;;1.90;1.80;;;24.30;83.00;;;;;;6127090;23;20460;-90
2023/08/30 04:47:49;;;;;;;1.40;1.27;;;24.30;83.00;;;;;;6126736;23;20412;-89
2023/08/30 04:50:16;;;;;;;1.23;1.13;;;24.30;82.90;;;;;;6127309;23;20408;-90
2023/08/30 04:52:44;;;;;;;2.13;2.00;;;24.30;83.50;;;;;;6127513;23;20502;-92
2023/08/30 04:55:11;;;;;;;1.60;1.50;;;24.30;82.70;;;;;;6126795;23;20464;-89
2023/08/30 04:57:38;;;;;;;1.37;1.27;;;24.30;82.90;;;;;;6126954;23;20795;-89
2023/08/30 05:00:07;;;;;;;1.70;1.60;;;24.30;82.90;;;;;;6127093;23;20487;-89
2023/08/30 05:02:34;;;;;;;1.30;1.20;;;24.30;82.90;;;;;;6126964;23;20409;-90
2023/08/30 05:05:01;;;;;;;1.40;1.30;;;24.30;82.80;;;;;;6126713;23;20480;-91
2023/08/30 05:07:27;;;;;;;1.90;1.70;;;24.30;82.80;;;;;;6127009;23;20432;-89
2023/08/30 05:09:56;;;;;;;1.50;1.30;;;24.30;82.90;;;;;;6126857;23;20404;-89
2023/08/30 05:12:23;;;;;;;1.30;1.20;;;24.30;82.90;;;;;;6127017;23;20407;-90
2023/08/30 05:14:49;;;;;;;1.50;1.40;;;24.20;82.80;;;;;;6126962;23;20420;-89
2023/08/30 05:17:16;;;;;;;1.30;1.20;;;24.30;82.90;;;;;;6126816;23;20436;-89
2023/08/30 05:19:43;;;;;;;1.40;1.30;;;24.30;82.80;;;;;;6127197;23;20531;-89
2023/08/30 05:22:10;;;;;;;1.60;1.50;;;24.20;82.80;;;;;;6126885;23;20484;-90
2023/08/30 05:24:38;;;;;;;1.30;1.20;;;24.20;82.70;;;;;;6126569;23;20985;-90
2023/08/30 05:27:07;;;;;;;1.43;1.33;;;24.30;82.90;;;;;;6127136;23;20405;-89
2023/08/30 05:29:33;;;;;;;1.30;1.10;;;24.20;82.80;;;;;;6127006;23;20397;-89
2023/08/30 05:32:00;;;;;;;1.60;1.40;;;24.20;82.80;;;;;;6127245;23;20417;-91
2023/08/30 05:34:28;;;;;;;2.70;1.67;;;24.20;82.80;;;;;;6127337;23;20814;-89
2023/08/30 05:36:55;;;;;;;1.30;1.20;;;24.20;82.80;;;;;;6126848;23;20569;-89
2023/08/30 05:39:22;;;;;;;1.50;1.40;;;24.20;82.80;;;;;;6126808;23;20527;-89
2023/08/30 05:41:49;;;;;;;1.60;1.50;;;24.20;82.70;;;;;;6126761;23;20440;-89
2023/08/30 05:44:17;;;;;;;1.40;1.30;;;24.20;82.80;;;;;;6126475;23;20483;-89
2023/08/30 05:46:44;;;;;;;1.50;1.40;;;24.20;82.80;;;;;;6126908;23;20428;-91
2023/08/30 05:49:11;;;;;;;2.00;1.60;;;24.30;83.00;;;;;;6126641;23;20949;-91
2023/08/30 05:51:38;;;;;;;1.83;1.73;;;24.20;82.70;;;;;;6126645;23;20401;-89
2023/08/30 05:54:05;;;;;;;1.60;1.50;;;24.30;82.80;;;;;;6126194;23;20471;-89
2023/08/30 05:56:32;;;;;;;1.70;1.60;;;24.20;82.80;;;;;;6125228;23;20483;-91
2023/08/30 05:58:59;;;;;;;1.77;1.67;;;24.20;82.80;;;;;;6125527;23;20756;-89
2023/08/30 06:01:27;;;;;;;1.30;1.20;;;24.20;82.70;;;;;;6125612;23;20444;-89
2023/08/30 06:03:54;;;;;;;1.30;1.20;;;24.30;82.90;;;;;;6129341;23;20480;-91
2023/08/30 06:06:21;;;;;;;2.17;1.93;;;24.30;83.90;;;;;;6127846;23;20409;-90
2023/08/30 06:08:48;;;;;;;1.90;1.80;;;24.20;83.00;;;;;;6125768;23;20885;-91
2023/08/30 06:11:15;;;;;;;4.27;2.50;;;24.20;83.20;;;;;;6126581;23;20454;-95
2023/08/30 06:13:42;;;;;;;2.03;1.83;;;24.20;83.00;;;;;;6126455;23;20963;-95
2023/08/30 06:16:09;;;;;;;1.90;1.80;;;24.20;83.10;;;;;;6125856;23;20440;-92
2023/08/30 06:18:38;;;;;;;1.50;1.40;;;24.20;83.30;;;;;;6125898;23;20951;-93
2023/08/30 06:21:04;;;;;;;2.13;1.93;;;24.20;83.50;;;;;;6125836;23;20955;-92
2023/08/30 06:23:31;;;;;;;5.10;1.77;;;24.20;83.70;;;;;;6126294;23;20739;-94
2023/08/30 06:25:59;;;;;;;1.97;1.77;;;24.20;83.80;;;;;;6125759;23;20405;-92
2023/08/30 06:28:26;;;;;;;3.20;2.20;;;24.20;83.90;;;;;;6126151;23;20904;-94
2023/08/30 06:30:53;;;;;;;2.30;2.17;;;24.20;84.00;;;;;;6125094;23;20409;-90
2023/08/30 06:33:20;;;;;;;4.43;2.20;;;24.20;83.90;;;;;;6125813;23;20496;-90
2023/08/30 06:35:50;;;;;;;3.03;2.30;;;24.20;84.00;;;;;;6125581;23;20404;-90
2023/08/30 06:38:17;;;;;;;3.40;1.97;;;24.20;84.10;;;;;;6125420;23;20397;-91
2023/08/30 06:40:45;;;;;;;3.00;2.20;;;24.20;84.10;;;;;;6125638;23;20475;-90
2023/08/30 06:43:12;;;;;;;2.93;2.60;;;24.20;84.10;;;;;;6125498;23;20405;-90
2023/08/30 06:45:39;;;;;;;3.33;2.37;;;24.20;84.20;;;;;;6125628;23;20404;-90
2023/08/30 06:48:07;;;;;;;3.53;2.93;;;24.20;84.10;;;;;;6125562;23;20436;-90
2023/08/30 06:50:34;;;;;;;2.43;2.23;;;24.20;83.80;;;;;;6125813;23;20401;-91
2023/08/30 06:53:03;;;;;;;2.47;1.97;;;24.20;83.90;;;;;;6125236;23;20427;-90
2023/08/30 06:55:30;;;;;;;3.87;2.80;;;24.20;83.90;;;;;;6079276;23;1117788;-90
2023/08/30 06:57:56;;;;;;;2.50;2.30;;;24.20;83.90;;;;;;6126654;23;20227;-90
2023/08/30 07:00:23;;;;;;;3.70;2.90;;;24.20;83.80;;;;;;6126218;23;20531;-90
2023/08/30 07:02:50;;;;;;;4.37;2.43;;;24.20;83.70;;;;;;6126527;23;20430;-95
2023/08/30 07:05:33;;;;;;;3.33;2.87;;;24.30;83.70;;;;;;6134102;23;20475;-91
2023/08/30 07:08:17;;;;;;;2.73;2.53;;;24.30;83.60;;;;;;6138818;23;20409;-92
2023/08/30 07:14:06;;;;;;;4.17;2.80;;;24.30;83.60;;;;;;6130924;23;20369;-93
2023/08/30 07:16:33;;;;;;;6.30;5.70;;;24.30;83.60;;;;;;6127595;23;20435;-93
2023/08/30 07:19:01;;;;;;;9.40;8.50;;;24.30;83.00;;;;;;6127720;23;20884;-92
2023/08/30 07:21:28;;;;;;;11.27;8.90;;;24.20;81.50;;;;;;6102357;23;20420;-94
2023/08/30 07:23:56;;;;;;;6.50;5.90;;;24.20;80.90;;;;;;6126960;23;20492;-95
2023/08/30 07:26:23;;;;;;;6.40;5.03;;;24.20;81.20;;;;;;6137766;23;20431;-91
2023/08/30 07:28:50;;;;;;;8.40;4.40;;;24.20;81.70;;;;;;6190011;23;20405;-90
2023/08/30 07:31:43;;;;;;;3.40;3.10;;;24.30;82.60;;;;;;6192227;23;20394;-94
2023/08/30 07:34:18;;;;;;;2.80;2.60;;;24.30;82.70;;;;;;6186911;23;20489;-92
2023/08/30 07:36:45;;;;;;;2.53;2.33;;;24.30;82.80;;;;;;6192115;23;20973;-96
2023/08/30 07:39:13;;;;;;;2.33;2.10;;;24.30;82.80;;;;;;6188210;23;20487;-92
2023/08/30 07:41:40;;;;;;;4.67;2.80;;;24.40;82.80;;;;;;6187469;23;20743;-91
2023/08/30 07:47:19;;;;;;;2.33;2.10;;;24.40;82.80;;;;;;6135055;23;20534;-94
2023/08/30 07:50:15;;;;;;;5.70;2.20;;;24.40;83.30;;;;;;6141223;23;20565;-96
2023/08/30 07:53:06;;;;;;;2.87;1.60;;;24.40;83.60;;;;;;6161846;23;20427;-96
2023/08/30 08:02:57;;;;;;;2.23;1.70;;;24.50;83.80;;;;;;6185316;23;20554;-96
2023/08/30 08:05:24;;;;;;;4.00;2.00;;;24.40;83.80;;;;;;6197615;23;20431;-93
2023/08/30 08:07:52;;;;;;;2.33;1.90;;;24.50;84.00;;;;;;6188492;23;20809;-93
2023/08/30 08:10:20;;;;;;;7.87;2.03;;;24.60;84.10;;;;;;6188644;23;20485;-96
2023/08/30 08:16:08;;;;;;;2.80;2.20;;;24.60;84.00;;;;;;6191077;23;20367;-95
2023/08/30 08:29:24;;;;;;;3.60;1.73;;;24.60;84.10;;;;;;6204001;23;20355;-93
2023/08/30 08:41:43;;;;;;;;;;;;;;;;;;;;;
2023/08/30 08:50:28;;;;;;;2.23;2.00;;;24.80;83.90;;;;;;6142364;23;20420;-96
2023/08/30 08:53:21;;;;;;;3.00;1.90;;;24.80;83.80;;;;;;6138646;23;20449;-96
2023/08/30 08:55:49;;;;;;;2.10;1.90;;;24.90;83.80;;;;;;6157247;23;20494;-96
2023/08/30 08:58:43;;;;;;;3.07;2.00;;;24.90;83.80;;;;;;6149650;23;20462;-94
2023/08/30 09:01:10;;;;;;;1.93;1.70;;;24.90;83.80;;;;;;6128622;23;20479;-95
2023/08/30 09:03:38;;;;;;;2.07;1.83;;;24.90;83.80;;;;;;6128008;23;20440;-96
2023/08/30 09:06:05;;;;;;;2.50;1.60;;;24.90;83.80;;;;;;6135780;23;20400;-96
2023/08/30 09:08:37;;;;;;;1.80;1.70;;;24.90;83.80;;;;;;6154215;23;20458;-96
2023/08/30 09:11:08;;;;;;;1.80;1.70;;;24.90;83.80;;;;;;6171664;23;20408;-96
2023/08/30 09:13:38;;;;;;;2.60;1.77;;;24.90;83.80;;;;;;6172918;23;20399;-96
2023/08/30 09:19:01;;;;;;;2.17;1.80;;;24.80;83.80;;;;;;6109578;23;20764;-96
2023/08/30 09:21:29;;;;;;;2.00;1.80;;;24.80;84.60;;;;;;6135090;23;20443;-93
2023/08/30 09:24:01;;;;;;;1.97;1.77;;;24.80;83.90;;;;;;6164278;23;20458;-95
2023/08/30 09:26:53;;;;;;;1.53;1.37;;;24.90;83.90;;;;;;6161168;23;20416;-96
2023/08/30 09:29:23;;;;;;;1.63;1.53;;;24.90;83.90;;;;;;6175977;23;20468;-96
2023/08/30 09:31:53;;;;;;;2.67;1.83;;;24.90;84.00;;;;;;6157618;23;20431;-94
2023/08/30 09:34:23;;;;;;;1.97;1.80;;;24.90;83.90;;;;;;6156716;23;20392;-94
2023/08/30 09:36:50;;;;;;;2.63;1.77;;;24.90;84.00;;;;;;6158437;23;20400;-96
2023/08/30 09:39:18;;;;;;;2.37;1.70;;;24.90;83.90;;;;;;6158013;23;20404;-96
2023/08/30 09:41:49;;;;;;;1.70;1.60;;;24.90;83.90;;;;;;6159602;23;20448;-96
2023/08/30 09:44:17;;;;;;;2.47;2.10;;;24.90;83.80;;;;;;6157035;23;20450;-90
2023/08/30 09:46:45;;;;;;;2.43;1.40;;;24.90;83.80;;;;;;6156760;23;20434;-90
2023/08/30 09:49:12;;;;;;;2.47;1.67;;;25.00;83.90;;;;;;6156470;23;20435;-90
2023/08/30 09:51:41;;;;;;;1.87;1.70;;;25.00;83.90;;;;;;6156820;23;20400;-89
2023/08/30 09:54:15;;;;;;;1.90;1.80;;;25.00;83.90;;;;;;6156339;23;20963;-90
2023/08/30 09:56:44;;;;;;;1.50;1.40;;;25.00;83.90;;;;;;6156669;23;20391;-90
2023/08/30 09:59:12;;;;;;;2.70;1.60;;;25.00;83.90;;;;;;6156821;23;20400;-90
2023/08/30 10:01:39;;;;;;;2.00;1.90;;;25.00;83.90;;;;;;6156619;23;20444;-90
2023/08/30 10:04:07;;;;;;;1.40;1.20;;;25.00;84.00;;;;;;6156696;23;20478;-90
2023/08/30 10:06:34;;;;;;;2.10;1.90;;;25.00;83.90;;;;;;6156614;23;20404;-90
2023/08/30 10:09:03;;;;;;;2.07;1.90;;;25.00;83.90;;;;;;6156568;23;20406;-90
2023/08/30 10:11:33;;;;;;;1.53;1.43;;;25.00;84.00;;;;;;6156409;23;20408;-94
2023/08/30 10:14:01;;;;;;;1.77;1.67;;;25.00;84.00;;;;;;6158300;23;20475;-95
2023/08/30 10:16:31;;;;;;;1.93;1.83;;;25.00;84.00;;;;;;6156804;23;20470;-96
2023/08/30 10:19:05;;;;;;;1.73;1.50;;;25.00;83.90;;;;;;6156790;23;20415;-95
2023/08/30 10:21:49;;;;;;;1.90;1.80;;;25.00;83.90;;;;;;6156983;23;20438;-94
2023/08/30 10:24:20;;;;;;;1.90;1.50;;;25.00;84.00;;;;;;6157068;23;20391;-96
2023/08/30 10:26:49;;;;;;;1.63;1.47;;;24.90;84.00;;;;;;6157916;23;20727;-94
2023/08/30 10:29:23;;;;;;;2.20;2.00;;;25.00;84.90;;;;;;6158783;23;20384;-96
2023/08/30 10:31:50;;;;;;;1.53;1.43;;;24.90;84.00;;;;;;6156799;23;20389;-94
2023/08/30 10:34:19;;;;;;;1.60;1.50;;;24.80;83.90;;;;;;6155221;23;20399;-95
2023/08/30 10:36:46;;;;;;;3.53;1.60;;;24.90;84.00;;;;;;6156368;23;20412;-91
2023/08/30 10:39:14;;;;;;;1.60;1.50;;;24.90;84.10;;;;;;6156943;23;20427;-94
2023/08/30 10:41:56;;;;;;;1.80;1.67;;;24.80;84.00;;;;;;6156943;23;20479;-96
2023/08/30 10:44:24;;;;;;;1.43;1.33;;;24.80;84.00;;;;;;6156624;23;20442;-94
2023/08/30 10:46:53;;;;;;;2.53;1.87;;;24.80;84.00;;;;;;6156103;23;20463;-94
2023/08/30 10:49:21;;;;;;;2.47;1.50;;;24.80;84.00;;;;;;6156001;23;20411;-93
2023/08/30 10:51:56;;;;;;;1.40;1.30;;;24.80;84.00;;;;;;6156539;23;20753;-93
2023/08/30 10:54:23;;;;;;;2.20;1.60;;;24.80;84.10;;;;;;6156160;23;20399;-93
2023/08/30 10:56:56;;;;;;;1.53;1.43;;;24.80;84.10;;;;;;6155753;23;20408;-92
2023/08/30 10:59:25;;;;;;;1.50;1.40;;;24.80;85.00;;;;;;6156153;23;20447;-94
2023/08/30 11:01:52;;;;;;;1.63;1.53;;;24.80;84.10;;;;;;6156282;23;20946;-93
2023/08/30 11:04:21;;;;;;;1.50;1.40;;;24.70;84.10;;;;;;6156773;23;20997;-95
2023/08/30 11:06:50;;;;;;;2.23;1.77;;;24.70;84.00;;;;;;6164320;23;20423;-94
2023/08/30 11:09:19;;;;;;;1.97;1.87;;;24.70;84.00;;;;;;6158029;23;20410;-90
2023/08/30 11:11:46;;;;;;;1.67;1.57;;;24.70;83.90;;;;;;6158600;23;20427;-90
2023/08/30 11:14:13;;;;;;;2.03;1.93;;;24.70;83.90;;;;;;6158353;23;20396;-91
2023/08/30 11:16:42;;;;;;;3.70;1.70;;;24.70;83.90;;;;;;6157785;23;20812;-91
2023/08/30 11:19:11;;;;;;;1.67;1.57;;;24.60;83.80;;;;;;6158316;23;20403;-91
2023/08/30 11:21:39;;;;;;;2.13;1.83;;;24.60;83.80;;;;;;6157778;23;20447;-90
2023/08/30 11:24:07;;;;;;;2.37;2.10;;;24.60;83.90;;;;;;6157638;23;20408;-90
2023/08/30 11:26:34;;;;;;;2.77;1.73;;;24.60;83.90;;;;;;6158976;23;20410;-90
2023/08/30 11:29:07;;;;;;;2.77;2.57;;;24.60;84.00;;;;;;6161661;23;20404;-93
2023/08/30 11:31:45;;;;;;;2.37;2.17;;;24.60;84.20;;;;;;6185643;23;20513;-95
2023/08/30 11:34:12;;;;;;;2.43;1.90;;;24.50;84.10;;;;;;6188880;23;20525;-93
2023/08/30 11:36:39;;;;;;;2.10;2.00;;;24.50;84.10;;;;;;6188478;23;20445;-93
2023/08/30 11:39:08;;;;;;;2.07;1.97;;;24.50;84.20;;;;;;6187810;23;20402;-94
2023/08/30 11:41:35;;;;;;;3.00;1.80;;;24.50;84.20;;;;;;6188099;23;20435;-93
2023/08/30 11:44:03;;;;;;;1.87;1.77;;;24.50;84.20;;;;;;6188426;23;20434;-93
2023/08/30 11:46:32;;;;;;;2.30;2.10;;;24.50;84.20;;;;;;6187526;23;20422;-93
2023/08/30 11:49:18;;;;;;;2.53;1.87;;;24.50;84.20;;;;;;6187935;23;20906;-95
2023/08/30 11:51:45;;;;;;;2.27;2.07;;;24.50;84.30;;;;;;6183845;23;20439;-93
2023/08/30 11:54:25;;;;;;;1.73;1.63;;;24.50;84.30;;;;;;6187679;23;20941;-95
2023/08/30 11:57:04;;;;;;;2.27;2.07;;;24.50;84.30;;;;;;6188023;23;20726;-93
2023/08/30 11:59:35;;;;;;;4.80;2.30;;;24.50;84.30;;;;;;6188549;23;20386;-93
2023/08/30 12:02:10;;;;;;;1.83;1.70;;;24.50;84.40;;;;;;6188121;23;20484;-92
2023/08/30 12:07:29;;;;;;;2.00;1.80;;;24.50;84.40;;;;;;6187666;23;20405;-92
2023/08/30 12:10:05;;;;;;;1.47;1.37;;;24.50;84.50;;;;;;6187858;23;20768;-95
2023/08/30 12:12:32;;;;;;;1.90;1.80;;;24.50;84.50;;;;;;6188014;23;20375;-92
2023/08/30 12:14:59;;;;;;;1.63;1.53;;;24.50;84.50;;;;;;6187452;23;20805;-94
2023/08/30 12:17:26;;;;;;;1.80;1.70;;;24.50;84.50;;;;;;6187911;23;20816;-92
2023/08/30 12:19:58;;;;;;;1.87;1.77;;;24.50;84.50;;;;;;6187424;23;20427;-92
2023/08/30 12:22:43;;;;;;;1.60;1.50;;;24.50;84.60;;;;;;6188559;23;20474;-91
2023/08/30 12:25:20;;;;;;;1.40;1.30;;;24.50;84.60;;;;;;6187101;23;20387;-90
2023/08/30 12:27:47;;;;;;;2.17;1.60;;;24.40;84.50;;;;;;6187475;23;20478;-90
2023/08/30 12:30:16;;;;;;;1.87;1.77;;;24.40;84.50;;;;;;6187029;23;20462;-91
2023/08/30 12:32:43;;;;;;;1.63;1.53;;;24.50;84.60;;;;;;6187576;23;20406;-92
2023/08/30 12:35:14;;;;;;;2.47;1.80;;;24.50;84.60;;;;;;6188044;23;20430;-93
2023/08/30 12:37:41;;;;;;;1.77;1.67;;;24.50;84.60;;;;;;6189207;23;20775;-94
2023/08/30 12:40:09;;;;;;;1.87;1.70;;;24.50;84.60;;;;;;6187550;23;20430;-94
2023/08/30 12:43:15;;;;;;;3.53;1.90;;;24.40;84.50;;;;;;6187473;23;20451;-95
2023/08/30 12:45:42;;;;;;;1.70;1.60;;;24.50;84.70;;;;;;6188241;23;20891;-94
2023/08/30 12:48:11;;;;;;;2.47;1.40;;;24.50;84.70;;;;;;6187393;23;20410;-91
2023/08/30 12:50:39;;;;;;;1.70;1.60;;;24.40;84.70;;;;;;6187674;23;20442;-91
2023/08/30 12:53:07;;;;;;;1.43;1.33;;;24.40;84.70;;;;;;6187203;23;20395;-92
2023/08/30 12:55:35;;;;;;;1.50;1.40;;;24.40;84.70;;;;;;6187639;23;20399;-93
2023/08/30 12:58:03;;;;;;;1.53;1.43;;;24.40;84.70;;;;;;6187472;23;20910;-94
2023/08/30 13:00:30;;;;;;;1.70;1.60;;;24.40;84.70;;;;;;6187631;23;20805;-93
2023/08/30 13:02:57;;;;;;;1.47;1.30;;;24.50;84.70;;;;;;6186857;23;20494;-93
2023/08/30 13:05:24;;;;;;;1.50;1.40;;;24.50;84.70;;;;;;6187462;23;20510;-94
2023/08/30 13:07:52;;;;;;;2.30;1.40;;;24.40;84.70;;;;;;6187681;23;20407;-94
2023/08/30 13:10:19;;;;;;;1.20;1.10;;;24.40;84.70;;;;;;6187367;23;20461;-94
2023/08/30 13:12:52;;;;;;;1.50;1.40;;;24.40;84.70;;;;;;6187148;23;20866;-94
2023/08/30 13:15:19;;;;;;;1.53;1.43;;;24.40;84.70;;;;;;6187250;23;20466;-92
2023/08/30 13:17:45;;;;;;;1.67;1.40;;;24.40;84.70;;;;;;6186777;23;20407;-92
2023/08/30 13:20:16;;;;;;;1.53;1.37;;;24.40;84.70;;;;;;6187062;23;20406;-93
2023/08/30 13:22:57;;;;;;;;;;;;;;;;;;;;;
2023/08/30 13:25:27;;;;;;;1.43;1.33;;;24.40;84.80;;;;;;6186791;23;20402;-94
2023/08/30 13:27:54;;;;;;;2.17;1.47;;;24.40;84.80;;;;;;6187354;23;20402;-93
2023/08/30 13:30:21;;;;;;;1.47;1.37;;;24.40;84.90;;;;;;6186756;23;20529;-95
2023/08/30 13:33:20;;;;;;;2.80;1.77;;;24.40;84.90;;;;;;6187259;23;20434;-94
2023/08/30 13:35:51;;;;;;;1.83;1.70;;;24.50;85.00;;;;;;6186855;23;20903;-94
2023/08/30 13:38:19;;;;;;;1.47;1.37;;;24.40;84.90;;;;;;6187620;23;20775;-94
2023/08/30 13:40:47;;;;;;;2.07;1.37;;;24.40;84.90;;;;;;6187619;23;20794;-94
2023/08/30 13:43:41;;;;;;;1.90;1.60;;;24.40;84.90;;;;;;6187597;23;20431;-94
2023/08/30 13:46:10;;;;;;;1.37;1.27;;;24.40;84.90;;;;;;6187476;23;20498;-94
2023/08/30 13:48:38;;;;;;;2.40;1.47;;;24.40;84.90;;;;;;6187380;23;20392;-94